sensor_id;sensor_type;location;lat;lon;timestamp;P1;durP1;ratioP1;P2;durP2;ratioP2
69629;SDS011;56857;52.212;5.496;2022-08-25T00:02:02;14.32;;;9.98;;
69629;SDS011;56857;52.212;5.496;2022-08-25T00:04:31;12.73;;;8.82;;
69629;SDS011;56857;52.212;5.496;2022-08-25T00:06:56;15.98;;;11.27;;
69629;SDS011;56857;52.212;5.496;2022-08-25T00:09:23;12.40;;;8.70;;
69629;SDS011;56857;52.212;5.496;2022-08-25T00:11:50;12.38;;;9.40;;
69629;SDS011;56857;52.212;5.496;2022-08-25T00:14:24;14.23;;;11.40;;
69629;SDS011;56857;52.212;5.496;2022-08-25T00:16:52;12.38;;;9.05;;
69629;SDS011;56857;52.212;5.496;2022-08-25T00:19:18;14.35;;;8.98;;
69629;SDS011;56857;52.212;5.496;2022-08-25T00:21:48;12.35;;;8.73;;
69629;SDS011;56857;52.212;5.496;2022-08-25T00:24:14;12.07;;;9.02;;
69629;SDS011;56857;52.212;5.496;2022-08-25T00:26:42;15.48;;;12.05;;
69629;SDS011;56857;52.212;5.496;2022-08-25T00:29:09;14.80;;;11.50;;
69629;SDS011;56857;52.212;5.496;2022-08-25T00:31:35;12.65;;;9.32;;
69629;SDS011;56857;52.212;5.496;2022-08-25T00:34:01;12.05;;;9.93;;
69629;SDS011;56857;52.212;5.496;2022-08-25T00:36:27;14.20;;;11.02;;
69629;SDS011;56857;52.212;5.496;2022-08-25T00:38:52;14.18;;;12.15;;
69629;SDS011;56857;52.212;5.496;2022-08-25T00:41:19;12.23;;;9.73;;
69629;SDS011;56857;52.212;5.496;2022-08-25T00:43:47;16.35;;;12.48;;
69629;SDS011;56857;52.212;5.496;2022-08-25T00:46:15;12.73;;;8.95;;
69629;SDS011;56857;52.212;5.496;2022-08-25T00:48:42;14.30;;;9.38;;
69629;SDS011;56857;52.212;5.496;2022-08-25T00:51:10;12.15;;;9.45;;
69629;SDS011;56857;52.212;5.496;2022-08-25T00:53:39;12.40;;;9.73;;
69629;SDS011;56857;52.212;5.496;2022-08-25T00:56:05;13.25;;;11.20;;
69629;SDS011;56857;52.212;5.496;2022-08-25T00:58:31;14.15;;;11.00;;
69629;SDS011;56857;52.212;5.496;2022-08-25T01:00:59;11.95;;;10.20;;
69629;SDS011;56857;52.212;5.496;2022-08-25T01:03:25;17.88;;;13.95;;
69629;SDS011;56857;52.212;5.496;2022-08-25T01:05:53;16.35;;;13.25;;
69629;SDS011;56857;52.212;5.496;2022-08-25T01:08:20;13.30;;;10.10;;
69629;SDS011;56857;52.212;5.496;2022-08-25T01:10:50;11.50;;;9.50;;
69629;SDS011;56857;52.212;5.496;2022-08-25T01:13:17;11.70;;;9.77;;
69629;SDS011;56857;52.212;5.496;2022-08-25T01:15:47;15.05;;;10.18;;
69629;SDS011;56857;52.212;5.496;2022-08-25T01:18:13;13.13;;;10.20;;
69629;SDS011;56857;52.212;5.496;2022-08-25T01:20:40;13.68;;;9.00;;
69629;SDS011;56857;52.212;5.496;2022-08-25T01:23:05;13.30;;;9.60;;
69629;SDS011;56857;52.212;5.496;2022-08-25T01:30:42;11.13;;;9.02;;
69629;SDS011;56857;52.212;5.496;2022-08-25T01:33:08;12.75;;;9.50;;
69629;SDS011;56857;52.212;5.496;2022-08-25T01:35:35;13.70;;;9.10;;
69629;SDS011;56857;52.212;5.496;2022-08-25T01:38:02;15.75;;;10.93;;
69629;SDS011;56857;52.212;5.496;2022-08-25T01:40:29;13.25;;;9.55;;
69629;SDS011;56857;52.212;5.496;2022-08-25T01:45:58;11.27;;;7.82;;
69629;SDS011;56857;52.212;5.496;2022-08-25T01:48:24;11.63;;;9.23;;
69629;SDS011;56857;52.212;5.496;2022-08-25T01:50:49;12.10;;;10.13;;
69629;SDS011;56857;52.212;5.496;2022-08-25T01:53:23;12.85;;;8.57;;
69629;SDS011;56857;52.212;5.496;2022-08-25T01:55:51;11.82;;;8.57;;
69629;SDS011;56857;52.212;5.496;2022-08-25T02:00:53;10.40;;;8.10;;
69629;SDS011;56857;52.212;5.496;2022-08-25T02:03:21;13.10;;;9.70;;
69629;SDS011;56857;52.212;5.496;2022-08-25T02:05:47;11.98;;;9.02;;
69629;SDS011;56857;52.212;5.496;2022-08-25T02:08:13;10.30;;;8.13;;
69629;SDS011;56857;52.212;5.496;2022-08-25T02:10:39;11.40;;;8.88;;
69629;SDS011;56857;52.212;5.496;2022-08-25T02:13:05;10.15;;;8.43;;
69629;SDS011;56857;52.212;5.496;2022-08-25T02:15:32;10.80;;;8.18;;
69629;SDS011;56857;52.212;5.496;2022-08-25T02:17:57;12.38;;;8.35;;
69629;SDS011;56857;52.212;5.496;2022-08-25T02:20:23;9.60;;;6.88;;
69629;SDS011;56857;52.212;5.496;2022-08-25T02:22:52;12.20;;;8.13;;
69629;SDS011;56857;52.212;5.496;2022-08-25T02:25:18;11.73;;;7.18;;
69629;SDS011;56857;52.212;5.496;2022-08-25T02:27:44;13.95;;;7.43;;
69629;SDS011;56857;52.212;5.496;2022-08-25T02:30:11;11.70;;;7.00;;
69629;SDS011;56857;52.212;5.496;2022-08-25T02:32:38;11.43;;;6.18;;
69629;SDS011;56857;52.212;5.496;2022-08-25T02:35:04;9.80;;;6.55;;
69629;SDS011;56857;52.212;5.496;2022-08-25T02:37:30;8.95;;;6.35;;
69629;SDS011;56857;52.212;5.496;2022-08-25T02:39:55;8.57;;;5.93;;
69629;SDS011;56857;52.212;5.496;2022-08-25T02:42:20;8.10;;;5.72;;
69629;SDS011;56857;52.212;5.496;2022-08-25T02:44:46;8.30;;;5.75;;
69629;SDS011;56857;52.212;5.496;2022-08-25T02:47:11;8.75;;;6.40;;
69629;SDS011;56857;52.212;5.496;2022-08-25T02:49:36;9.75;;;6.13;;
69629;SDS011;56857;52.212;5.496;2022-08-25T02:52:02;8.10;;;6.15;;
69629;SDS011;56857;52.212;5.496;2022-08-25T02:54:27;8.02;;;5.95;;
69629;SDS011;56857;52.212;5.496;2022-08-25T02:56:52;10.27;;;6.07;;
69629;SDS011;56857;52.212;5.496;2022-08-25T02:59:18;8.65;;;5.43;;
69629;SDS011;56857;52.212;5.496;2022-08-25T03:01:43;7.90;;;5.45;;
69629;SDS011;56857;52.212;5.496;2022-08-25T03:04:09;7.82;;;5.40;;
69629;SDS011;56857;52.212;5.496;2022-08-25T03:06:34;12.23;;;4.97;;
69629;SDS011;56857;52.212;5.496;2022-08-25T03:09:00;9.32;;;5.20;;
69629;SDS011;56857;52.212;5.496;2022-08-25T03:11:25;9.88;;;5.22;;
69629;SDS011;56857;52.212;5.496;2022-08-25T03:13:51;8.65;;;4.65;;
69629;SDS011;56857;52.212;5.496;2022-08-25T03:16:17;9.13;;;4.85;;
69629;SDS011;56857;52.212;5.496;2022-08-25T03:18:43;8.07;;;4.93;;
69629;SDS011;56857;52.212;5.496;2022-08-25T03:21:09;9.35;;;5.20;;
69629;SDS011;56857;52.212;5.496;2022-08-25T03:23:35;11.60;;;5.65;;
69629;SDS011;56857;52.212;5.496;2022-08-25T03:26:01;8.10;;;4.85;;
69629;SDS011;56857;52.212;5.496;2022-08-25T03:28:26;7.50;;;4.50;;
69629;SDS011;56857;52.212;5.496;2022-08-25T03:30:52;7.95;;;5.00;;
69629;SDS011;56857;52.212;5.496;2022-08-25T03:33:18;11.10;;;5.07;;
69629;SDS011;56857;52.212;5.496;2022-08-25T03:35:43;8.35;;;5.07;;
69629;SDS011;56857;52.212;5.496;2022-08-25T03:38:09;11.25;;;5.30;;
69629;SDS011;56857;52.212;5.496;2022-08-25T03:40:34;8.13;;;4.63;;
69629;SDS011;56857;52.212;5.496;2022-08-25T03:43:00;10.50;;;5.22;;
69629;SDS011;56857;52.212;5.496;2022-08-25T03:45:25;7.65;;;4.28;;
69629;SDS011;56857;52.212;5.496;2022-08-25T03:47:51;7.68;;;4.57;;
69629;SDS011;56857;52.212;5.496;2022-08-25T03:50:18;10.52;;;5.10;;
69629;SDS011;56857;52.212;5.496;2022-08-25T03:52:49;8.00;;;4.50;;
69629;SDS011;56857;52.212;5.496;2022-08-25T03:55:15;9.63;;;4.68;;
69629;SDS011;56857;52.212;5.496;2022-08-25T03:57:40;8.65;;;4.82;;
69629;SDS011;56857;52.212;5.496;2022-08-25T04:00:07;9.13;;;4.43;;
69629;SDS011;56857;52.212;5.496;2022-08-25T04:02:34;9.13;;;4.50;;
69629;SDS011;56857;52.212;5.496;2022-08-25T04:04:59;7.47;;;5.10;;
69629;SDS011;56857;52.212;5.496;2022-08-25T04:07:25;7.53;;;4.40;;
69629;SDS011;56857;52.212;5.496;2022-08-25T04:09:52;9.00;;;4.78;;
69629;SDS011;56857;52.212;5.496;2022-08-25T04:12:18;8.73;;;4.75;;
69629;SDS011;56857;52.212;5.496;2022-08-25T04:14:43;8.55;;;4.18;;
69629;SDS011;56857;52.212;5.496;2022-08-25T04:17:08;6.97;;;4.28;;
69629;SDS011;56857;52.212;5.496;2022-08-25T04:19:34;7.85;;;4.43;;
69629;SDS011;56857;52.212;5.496;2022-08-25T04:21:59;10.35;;;4.40;;
69629;SDS011;56857;52.212;5.496;2022-08-25T04:24:25;8.73;;;4.10;;
69629;SDS011;56857;52.212;5.496;2022-08-25T04:26:50;8.13;;;4.32;;
69629;SDS011;56857;52.212;5.496;2022-08-25T04:29:17;8.48;;;4.65;;
69629;SDS011;56857;52.212;5.496;2022-08-25T04:31:45;6.95;;;4.20;;
69629;SDS011;56857;52.212;5.496;2022-08-25T04:34:12;9.40;;;4.70;;
69629;SDS011;56857;52.212;5.496;2022-08-25T04:36:38;7.05;;;4.63;;
69629;SDS011;56857;52.212;5.496;2022-08-25T04:39:04;7.85;;;4.95;;
69629;SDS011;56857;52.212;5.496;2022-08-25T04:41:30;9.98;;;4.32;;
69629;SDS011;56857;52.212;5.496;2022-08-25T04:43:56;8.57;;;4.55;;
69629;SDS011;56857;52.212;5.496;2022-08-25T04:46:24;12.70;;;5.20;;
69629;SDS011;56857;52.212;5.496;2022-08-25T04:48:52;7.53;;;4.50;;
69629;SDS011;56857;52.212;5.496;2022-08-25T04:51:21;9.35;;;4.93;;
69629;SDS011;56857;52.212;5.496;2022-08-25T04:53:49;7.32;;;4.50;;
69629;SDS011;56857;52.212;5.496;2022-08-25T04:56:16;7.90;;;4.88;;
69629;SDS011;56857;52.212;5.496;2022-08-25T04:58:43;7.63;;;4.63;;
69629;SDS011;56857;52.212;5.496;2022-08-25T05:01:11;7.32;;;4.38;;
69629;SDS011;56857;52.212;5.496;2022-08-25T05:03:38;8.32;;;4.22;;
69629;SDS011;56857;52.212;5.496;2022-08-25T05:06:04;9.15;;;4.50;;
69629;SDS011;56857;52.212;5.496;2022-08-25T05:08:30;7.80;;;4.25;;
69629;SDS011;56857;52.212;5.496;2022-08-25T05:10:56;9.80;;;4.88;;
69629;SDS011;56857;52.212;5.496;2022-08-25T05:13:23;9.88;;;4.45;;
69629;SDS011;56857;52.212;5.496;2022-08-25T05:15:53;8.60;;;4.32;;
69629;SDS011;56857;52.212;5.496;2022-08-25T05:18:20;8.25;;;4.40;;
69629;SDS011;56857;52.212;5.496;2022-08-25T05:20:46;9.15;;;4.53;;
69629;SDS011;56857;52.212;5.496;2022-08-25T05:23:15;7.55;;;4.47;;
69629;SDS011;56857;52.212;5.496;2022-08-25T05:25:40;7.03;;;4.07;;
69629;SDS011;56857;52.212;5.496;2022-08-25T05:28:06;8.70;;;4.75;;
69629;SDS011;56857;52.212;5.496;2022-08-25T05:30:31;8.48;;;4.40;;
69629;SDS011;56857;52.212;5.496;2022-08-25T05:32:56;8.52;;;4.20;;
69629;SDS011;56857;52.212;5.496;2022-08-25T05:35:22;7.68;;;4.20;;
69629;SDS011;56857;52.212;5.496;2022-08-25T05:37:52;8.27;;;4.35;;
69629;SDS011;56857;52.212;5.496;2022-08-25T05:40:18;8.35;;;4.30;;
69629;SDS011;56857;52.212;5.496;2022-08-25T05:42:43;8.48;;;4.32;;
69629;SDS011;56857;52.212;5.496;2022-08-25T05:45:08;8.52;;;4.50;;
69629;SDS011;56857;52.212;5.496;2022-08-25T05:47:34;8.95;;;4.38;;
69629;SDS011;56857;52.212;5.496;2022-08-25T05:49:59;9.77;;;4.22;;
69629;SDS011;56857;52.212;5.496;2022-08-25T05:52:27;7.75;;;4.30;;
69629;SDS011;56857;52.212;5.496;2022-08-25T05:54:53;7.10;;;4.00;;
69629;SDS011;56857;52.212;5.496;2022-08-25T05:57:18;7.78;;;4.00;;
69629;SDS011;56857;52.212;5.496;2022-08-25T05:59:44;9.90;;;4.50;;
69629;SDS011;56857;52.212;5.496;2022-08-25T06:02:09;8.93;;;4.30;;
69629;SDS011;56857;52.212;5.496;2022-08-25T06:04:35;8.10;;;4.38;;
69629;SDS011;56857;52.212;5.496;2022-08-25T06:07:00;7.90;;;4.32;;
69629;SDS011;56857;52.212;5.496;2022-08-25T06:09:26;8.68;;;4.18;;
69629;SDS011;56857;52.212;5.496;2022-08-25T06:11:51;8.98;;;4.32;;
69629;SDS011;56857;52.212;5.496;2022-08-25T06:14:18;8.55;;;4.32;;
69629;SDS011;56857;52.212;5.496;2022-08-25T06:16:44;10.65;;;4.55;;
69629;SDS011;56857;52.212;5.496;2022-08-25T06:19:10;9.68;;;4.90;;
69629;SDS011;56857;52.212;5.496;2022-08-25T06:21:36;8.32;;;4.15;;
69629;SDS011;56857;52.212;5.496;2022-08-25T06:24:01;14.45;;;4.68;;
69629;SDS011;56857;52.212;5.496;2022-08-25T06:26:27;9.15;;;4.43;;
69629;SDS011;56857;52.212;5.496;2022-08-25T06:28:52;9.30;;;4.72;;
69629;SDS011;56857;52.212;5.496;2022-08-25T06:31:18;7.68;;;4.15;;
69629;SDS011;56857;52.212;5.496;2022-08-25T06:33:45;9.05;;;4.43;;
69629;SDS011;56857;52.212;5.496;2022-08-25T06:36:11;10.85;;;4.50;;
69629;SDS011;56857;52.212;5.496;2022-08-25T06:38:36;10.13;;;4.47;;
69629;SDS011;56857;52.212;5.496;2022-08-25T06:41:02;12.05;;;4.63;;
69629;SDS011;56857;52.212;5.496;2022-08-25T06:43:29;11.77;;;4.40;;
69629;SDS011;56857;52.212;5.496;2022-08-25T06:45:54;10.43;;;4.28;;
69629;SDS011;56857;52.212;5.496;2022-08-25T06:48:20;8.45;;;4.53;;
69629;SDS011;56857;52.212;5.496;2022-08-25T06:50:45;9.45;;;4.13;;
69629;SDS011;56857;52.212;5.496;2022-08-25T06:53:11;11.00;;;4.60;;
69629;SDS011;56857;52.212;5.496;2022-08-25T06:55:36;8.48;;;3.53;;
69629;SDS011;56857;52.212;5.496;2022-08-25T06:58:02;8.43;;;4.13;;
69629;SDS011;56857;52.212;5.496;2022-08-25T07:00:29;8.82;;;4.60;;
69629;SDS011;56857;52.212;5.496;2022-08-25T07:02:55;10.48;;;4.20;;
69629;SDS011;56857;52.212;5.496;2022-08-25T07:05:20;11.60;;;4.55;;
69629;SDS011;56857;52.212;5.496;2022-08-25T07:07:45;9.15;;;4.38;;
69629;SDS011;56857;52.212;5.496;2022-08-25T07:10:11;6.93;;;3.80;;
69629;SDS011;56857;52.212;5.496;2022-08-25T07:12:37;11.77;;;3.78;;
69629;SDS011;56857;52.212;5.496;2022-08-25T07:15:03;10.63;;;4.22;;
69629;SDS011;56857;52.212;5.496;2022-08-25T07:17:29;10.13;;;4.07;;
69629;SDS011;56857;52.212;5.496;2022-08-25T07:19:54;11.52;;;4.95;;
69629;SDS011;56857;52.212;5.496;2022-08-25T07:22:20;9.10;;;4.20;;
69629;SDS011;56857;52.212;5.496;2022-08-25T07:24:45;8.85;;;4.13;;
69629;SDS011;56857;52.212;5.496;2022-08-25T07:27:10;7.85;;;3.80;;
69629;SDS011;56857;52.212;5.496;2022-08-25T07:29:35;10.75;;;4.30;;
69629;SDS011;56857;52.212;5.496;2022-08-25T07:32:01;7.40;;;4.00;;
69629;SDS011;56857;52.212;5.496;2022-08-25T07:34:27;10.50;;;4.07;;
69629;SDS011;56857;52.212;5.496;2022-08-25T07:36:53;9.70;;;4.32;;
69629;SDS011;56857;52.212;5.496;2022-08-25T07:39:19;8.77;;;4.15;;
69629;SDS011;56857;52.212;5.496;2022-08-25T07:41:44;7.80;;;3.95;;
69629;SDS011;56857;52.212;5.496;2022-08-25T07:44:10;8.32;;;4.20;;
69629;SDS011;56857;52.212;5.496;2022-08-25T07:46:36;8.05;;;4.10;;
69629;SDS011;56857;52.212;5.496;2022-08-25T07:49:02;9.02;;;3.88;;
69629;SDS011;56857;52.212;5.496;2022-08-25T07:51:28;14.70;;;3.95;;
69629;SDS011;56857;52.212;5.496;2022-08-25T07:53:53;9.57;;;4.65;;
69629;SDS011;56857;52.212;5.496;2022-08-25T07:56:19;10.73;;;4.38;;
69629;SDS011;56857;52.212;5.496;2022-08-25T07:58:45;7.65;;;3.95;;
69629;SDS011;56857;52.212;5.496;2022-08-25T08:01:15;12.70;;;4.15;;
69629;SDS011;56857;52.212;5.496;2022-08-25T08:03:42;9.70;;;4.13;;
69629;SDS011;56857;52.212;5.496;2022-08-25T08:06:09;9.55;;;4.10;;
69629;SDS011;56857;52.212;5.496;2022-08-25T08:08:39;10.00;;;4.30;;
69629;SDS011;56857;52.212;5.496;2022-08-25T08:11:05;8.13;;;3.90;;
69629;SDS011;56857;52.212;5.496;2022-08-25T08:13:42;8.90;;;3.47;;
69629;SDS011;56857;52.212;5.496;2022-08-25T08:16:10;7.68;;;3.78;;
69629;SDS011;56857;52.212;5.496;2022-08-25T08:18:37;7.38;;;3.83;;
69629;SDS011;56857;52.212;5.496;2022-08-25T08:21:03;7.50;;;3.50;;
69629;SDS011;56857;52.212;5.496;2022-08-25T08:23:31;11.90;;;4.03;;
69629;SDS011;56857;52.212;5.496;2022-08-25T08:25:56;8.35;;;4.30;;
69629;SDS011;56857;52.212;5.496;2022-08-25T08:28:22;7.65;;;4.03;;
69629;SDS011;56857;52.212;5.496;2022-08-25T08:30:47;7.22;;;3.78;;
69629;SDS011;56857;52.212;5.496;2022-08-25T08:33:12;12.68;;;4.47;;
69629;SDS011;56857;52.212;5.496;2022-08-25T08:35:38;9.57;;;3.80;;
69629;SDS011;56857;52.212;5.496;2022-08-25T08:38:05;10.27;;;4.20;;
69629;SDS011;56857;52.212;5.496;2022-08-25T08:40:30;10.70;;;3.80;;
69629;SDS011;56857;52.212;5.496;2022-08-25T08:43:04;9.70;;;4.20;;
69629;SDS011;56857;52.212;5.496;2022-08-25T08:45:40;12.13;;;4.22;;
69629;SDS011;56857;52.212;5.496;2022-08-25T08:51:21;9.27;;;3.55;;
69629;SDS011;56857;52.212;5.496;2022-08-25T08:56:26;8.23;;;3.55;;
69629;SDS011;56857;52.212;5.496;2022-08-25T08:58:57;10.65;;;3.38;;
69629;SDS011;56857;52.212;5.496;2022-08-25T09:01:33;11.30;;;3.60;;
69629;SDS011;56857;52.212;5.496;2022-08-25T09:04:19;10.93;;;3.42;;
69629;SDS011;56857;52.212;5.496;2022-08-25T09:06:51;9.30;;;3.45;;
69629;SDS011;56857;52.212;5.496;2022-08-25T09:09:24;12.43;;;3.70;;
69629;SDS011;56857;52.212;5.496;2022-08-25T09:14:45;12.65;;;3.60;;
69629;SDS011;56857;52.212;5.496;2022-08-25T09:17:17;9.30;;;3.42;;
69629;SDS011;56857;52.212;5.496;2022-08-25T09:20:06;9.70;;;3.60;;
69629;SDS011;56857;52.212;5.496;2022-08-25T09:25:43;11.57;;;3.53;;
69629;SDS011;56857;52.212;5.496;2022-08-25T09:30:49;6.88;;;3.05;;
69629;SDS011;56857;52.212;5.496;2022-08-25T09:33:27;8.50;;;3.38;;
69629;SDS011;56857;52.212;5.496;2022-08-25T09:35:54;10.13;;;3.53;;
69629;SDS011;56857;52.212;5.496;2022-08-25T09:38:21;8.02;;;3.33;;
69629;SDS011;56857;52.212;5.496;2022-08-25T09:40:48;8.30;;;3.20;;
69629;SDS011;56857;52.212;5.496;2022-08-25T09:46:02;12.48;;;3.30;;
69629;SDS011;56857;52.212;5.496;2022-08-25T09:54:32;9.77;;;3.22;;
69629;SDS011;56857;52.212;5.496;2022-08-25T09:56:55;7.57;;;3.00;;
69629;SDS011;56857;52.212;5.496;2022-08-25T09:59:24;8.57;;;3.17;;
69629;SDS011;56857;52.212;5.496;2022-08-25T10:01:58;6.57;;;2.75;;
69629;SDS011;56857;52.212;5.496;2022-08-25T10:04:29;8.52;;;2.78;;
69629;SDS011;56857;52.212;5.496;2022-08-25T10:06:59;7.72;;;3.00;;
69629;SDS011;56857;52.212;5.496;2022-08-25T10:09:33;6.90;;;2.85;;
69629;SDS011;56857;52.212;5.496;2022-08-25T10:12:14;6.97;;;3.00;;
69629;SDS011;56857;52.212;5.496;2022-08-25T10:15:00;9.18;;;2.67;;
69629;SDS011;56857;52.212;5.496;2022-08-25T10:17:44;7.85;;;2.60;;
69629;SDS011;56857;52.212;5.496;2022-08-25T10:22:35;8.40;;;2.40;;
69629;SDS011;56857;52.212;5.496;2022-08-25T10:25:06;9.93;;;3.10;;
69629;SDS011;56857;52.212;5.496;2022-08-25T10:30:22;9.20;;;2.33;;
69629;SDS011;56857;52.212;5.496;2022-08-25T10:38:42;6.10;;;2.33;;
69629;SDS011;56857;52.212;5.496;2022-08-25T10:41:22;5.75;;;2.47;;
69629;SDS011;56857;52.212;5.496;2022-08-25T10:44:20;4.68;;;2.00;;
69629;SDS011;56857;52.212;5.496;2022-08-25T10:58:33;9.75;;;2.15;;
69629;SDS011;56857;52.212;5.496;2022-08-25T11:03:52;5.03;;;1.88;;
69629;SDS011;56857;52.212;5.496;2022-08-25T11:08:56;8.02;;;2.28;;
69629;SDS011;56857;52.212;5.496;2022-08-25T11:14:17;6.03;;;2.28;;
69629;SDS011;56857;52.212;5.496;2022-08-25T11:16:55;8.38;;;2.25;;
69629;SDS011;56857;52.212;5.496;2022-08-25T11:19:37;6.80;;;2.00;;
69629;SDS011;56857;52.212;5.496;2022-08-25T11:22:19;5.53;;;2.40;;
69629;SDS011;56857;52.212;5.496;2022-08-25T11:30:19;5.55;;;2.30;;
69629;SDS011;56857;52.212;5.496;2022-08-25T11:32:48;6.88;;;2.30;;
69629;SDS011;56857;52.212;5.496;2022-08-25T11:35:17;7.45;;;2.00;;
69629;SDS011;56857;52.212;5.496;2022-08-25T11:43:33;7.78;;;2.10;;
69629;SDS011;56857;52.212;5.496;2022-08-25T11:49:02;5.43;;;2.10;;
69629;SDS011;56857;52.212;5.496;2022-08-25T11:51:50;7.22;;;2.05;;
69629;SDS011;56857;52.212;5.496;2022-08-25T11:57:06;9.32;;;2.20;;
69629;SDS011;56857;52.212;5.496;2022-08-25T12:04:59;7.50;;;2.30;;
69629;SDS011;56857;52.212;5.496;2022-08-25T12:07:26;5.10;;;2.10;;
69629;SDS011;56857;52.212;5.496;2022-08-25T12:14:53;6.53;;;2.20;;
69629;SDS011;56857;52.212;5.496;2022-08-25T12:17:22;6.75;;;2.10;;
69629;SDS011;56857;52.212;5.496;2022-08-25T12:19:52;4.57;;;2.10;;
69629;SDS011;56857;52.212;5.496;2022-08-25T12:24:55;4.82;;;1.90;;
69629;SDS011;56857;52.212;5.496;2022-08-25T12:35:27;6.65;;;2.20;;
69629;SDS011;56857;52.212;5.496;2022-08-25T12:38:14;6.78;;;2.33;;
69629;SDS011;56857;52.212;5.496;2022-08-25T12:43:12;5.30;;;2.08;;
69629;SDS011;56857;52.212;5.496;2022-08-25T12:45:49;6.55;;;2.20;;
69629;SDS011;56857;52.212;5.496;2022-08-25T12:51:45;6.47;;;2.30;;
69629;SDS011;56857;52.212;5.496;2022-08-25T12:53:49;6.43;;;2.45;;
69629;SDS011;56857;52.212;5.496;2022-08-25T12:56:22;7.40;;;2.17;;
69629;SDS011;56857;52.212;5.496;2022-08-25T13:01:31;7.38;;;2.47;;
69629;SDS011;56857;52.212;5.496;2022-08-25T13:12:08;5.80;;;2.28;;
69629;SDS011;56857;52.212;5.496;2022-08-25T13:14:54;5.95;;;2.20;;
69629;SDS011;56857;52.212;5.496;2022-08-25T13:17:25;5.32;;;2.05;;
69629;SDS011;56857;52.212;5.496;2022-08-25T13:20:12;6.60;;;2.50;;
69629;SDS011;56857;52.212;5.496;2022-08-25T13:22:37;4.97;;;2.25;;
69629;SDS011;56857;52.212;5.496;2022-08-25T13:25:03;7.50;;;2.20;;
69629;SDS011;56857;52.212;5.496;2022-08-25T13:27:29;8.43;;;2.10;;
69629;SDS011;56857;52.212;5.496;2022-08-25T13:29:59;9.52;;;2.30;;
69629;SDS011;56857;52.212;5.496;2022-08-25T13:32:26;5.03;;;2.10;;
69629;SDS011;56857;52.212;5.496;2022-08-25T13:35:06;5.80;;;2.20;;
69629;SDS011;56857;52.212;5.496;2022-08-25T13:37:36;6.50;;;2.22;;
69629;SDS011;56857;52.212;5.496;2022-08-25T13:42:47;8.77;;;2.47;;
69629;SDS011;56857;52.212;5.496;2022-08-25T13:45:15;5.53;;;2.42;;
69629;SDS011;56857;52.212;5.496;2022-08-25T13:47:43;5.93;;;2.40;;
69629;SDS011;56857;52.212;5.496;2022-08-25T13:50:17;4.95;;;2.20;;
69629;SDS011;56857;52.212;5.496;2022-08-25T13:55:30;5.28;;;2.30;;
69629;SDS011;56857;52.212;5.496;2022-08-25T13:57:59;6.35;;;2.22;;
69629;SDS011;56857;52.212;5.496;2022-08-25T14:00:33;5.32;;;2.50;;
69629;SDS011;56857;52.212;5.496;2022-08-25T14:03:06;7.28;;;2.40;;
69629;SDS011;56857;52.212;5.496;2022-08-25T14:05:41;7.38;;;2.45;;
69629;SDS011;56857;52.212;5.496;2022-08-25T14:08:25;5.53;;;2.10;;
69629;SDS011;56857;52.212;5.496;2022-08-25T14:11:12;6.35;;;2.53;;
69629;SDS011;56857;52.212;5.496;2022-08-25T14:13:41;6.80;;;2.60;;
69629;SDS011;56857;52.212;5.496;2022-08-25T14:18:54;6.05;;;2.40;;
69629;SDS011;56857;52.212;5.496;2022-08-25T14:21:24;8.57;;;2.70;;
69629;SDS011;56857;52.212;5.496;2022-08-25T14:23:52;8.70;;;2.80;;
69629;SDS011;56857;52.212;5.496;2022-08-25T14:26:19;6.00;;;2.88;;
69629;SDS011;56857;52.212;5.496;2022-08-25T14:28:44;6.47;;;2.45;;
69629;SDS011;56857;52.212;5.496;2022-08-25T14:31:23;8.68;;;2.80;;
69629;SDS011;56857;52.212;5.496;2022-08-25T14:34:00;6.93;;;2.80;;
69629;SDS011;56857;52.212;5.496;2022-08-25T14:36:28;9.45;;;2.63;;
69629;SDS011;56857;52.212;5.496;2022-08-25T14:38:55;10.45;;;2.53;;
69629;SDS011;56857;52.212;5.496;2022-08-25T14:41:21;5.90;;;2.38;;
69629;SDS011;56857;52.212;5.496;2022-08-25T14:43:48;6.78;;;2.40;;
69629;SDS011;56857;52.212;5.496;2022-08-25T14:46:32;6.68;;;2.75;;
69629;SDS011;56857;52.212;5.496;2022-08-25T14:49:01;6.90;;;2.53;;
69629;SDS011;56857;52.212;5.496;2022-08-25T14:51:29;6.53;;;2.50;;
69629;SDS011;56857;52.212;5.496;2022-08-25T14:53:56;7.13;;;2.28;;
69629;SDS011;56857;52.212;5.496;2022-08-25T14:56:25;9.85;;;2.55;;
69629;SDS011;56857;52.212;5.496;2022-08-25T14:58:50;5.88;;;2.45;;
69629;SDS011;56857;52.212;5.496;2022-08-25T15:01:16;7.20;;;2.30;;
69629;SDS011;56857;52.212;5.496;2022-08-25T15:03:44;6.50;;;2.70;;
69629;SDS011;56857;52.212;5.496;2022-08-25T15:06:13;6.45;;;2.33;;
69629;SDS011;56857;52.212;5.496;2022-08-25T15:08:39;5.22;;;2.55;;
69629;SDS011;56857;52.212;5.496;2022-08-25T15:11:05;4.95;;;2.33;;
69629;SDS011;56857;52.212;5.496;2022-08-25T15:13:31;7.75;;;2.95;;
69629;SDS011;56857;52.212;5.496;2022-08-25T15:15:56;5.72;;;2.47;;
69629;SDS011;56857;52.212;5.496;2022-08-25T15:18:22;5.63;;;2.63;;
69629;SDS011;56857;52.212;5.496;2022-08-25T15:20:48;6.03;;;2.45;;
69629;SDS011;56857;52.212;5.496;2022-08-25T15:23:13;6.72;;;2.70;;
69629;SDS011;56857;52.212;5.496;2022-08-25T15:25:43;6.22;;;2.40;;
69629;SDS011;56857;52.212;5.496;2022-08-25T15:28:11;6.10;;;2.63;;
69629;SDS011;56857;52.212;5.496;2022-08-25T15:30:37;7.68;;;2.72;;
69629;SDS011;56857;52.212;5.496;2022-08-25T15:33:03;5.43;;;2.42;;
69629;SDS011;56857;52.212;5.496;2022-08-25T15:35:28;8.25;;;2.80;;
69629;SDS011;56857;52.212;5.496;2022-08-25T15:37:54;7.55;;;2.35;;
69629;SDS011;56857;52.212;5.496;2022-08-25T15:40:19;7.90;;;2.75;;
69629;SDS011;56857;52.212;5.496;2022-08-25T15:42:44;6.72;;;2.83;;
69629;SDS011;56857;52.212;5.496;2022-08-25T15:45:09;7.07;;;2.33;;
69629;SDS011;56857;52.212;5.496;2022-08-25T15:47:35;5.80;;;2.60;;
69629;SDS011;56857;52.212;5.496;2022-08-25T15:50:06;9.02;;;2.97;;
69629;SDS011;56857;52.212;5.496;2022-08-25T15:52:34;6.75;;;2.85;;
69629;SDS011;56857;52.212;5.496;2022-08-25T15:55:00;6.10;;;2.47;;
69629;SDS011;56857;52.212;5.496;2022-08-25T15:57:25;8.25;;;2.88;;
69629;SDS011;56857;52.212;5.496;2022-08-25T15:59:50;6.22;;;2.75;;
69629;SDS011;56857;52.212;5.496;2022-08-25T16:02:16;6.32;;;2.40;;
69629;SDS011;56857;52.212;5.496;2022-08-25T16:04:41;7.32;;;2.92;;
69629;SDS011;56857;52.212;5.496;2022-08-25T16:07:07;6.55;;;2.75;;
69629;SDS011;56857;52.212;5.496;2022-08-25T16:09:32;6.60;;;2.53;;
69629;SDS011;56857;52.212;5.496;2022-08-25T16:11:58;6.20;;;2.83;;
69629;SDS011;56857;52.212;5.496;2022-08-25T16:14:23;6.47;;;2.38;;
69629;SDS011;56857;52.212;5.496;2022-08-25T16:16:49;9.05;;;2.50;;
69629;SDS011;56857;52.212;5.496;2022-08-25T16:19:15;5.82;;;2.60;;
69629;SDS011;56857;52.212;5.496;2022-08-25T16:21:40;8.25;;;2.70;;
69629;SDS011;56857;52.212;5.496;2022-08-25T16:24:06;7.85;;;2.50;;
69629;SDS011;56857;52.212;5.496;2022-08-25T16:26:32;5.60;;;2.72;;
69629;SDS011;56857;52.212;5.496;2022-08-25T16:28:57;10.27;;;2.88;;
69629;SDS011;56857;52.212;5.496;2022-08-25T16:31:22;8.25;;;3.13;;
69629;SDS011;56857;52.212;5.496;2022-08-25T16:33:48;8.98;;;3.05;;
69629;SDS011;56857;52.212;5.496;2022-08-25T16:36:15;6.72;;;2.67;;
69629;SDS011;56857;52.212;5.496;2022-08-25T16:38:43;7.93;;;2.63;;
69629;SDS011;56857;52.212;5.496;2022-08-25T16:41:14;5.95;;;2.53;;
69629;SDS011;56857;52.212;5.496;2022-08-25T16:43:42;7.88;;;2.53;;
69629;SDS011;56857;52.212;5.496;2022-08-25T16:46:09;8.30;;;2.50;;
69629;SDS011;56857;52.212;5.496;2022-08-25T16:48:37;6.72;;;2.42;;
69629;SDS011;56857;52.212;5.496;2022-08-25T16:51:06;6.60;;;2.53;;
69629;SDS011;56857;52.212;5.496;2022-08-25T16:53:33;6.78;;;2.50;;
69629;SDS011;56857;52.212;5.496;2022-08-25T16:56:00;7.00;;;2.53;;